createdAt,value
2023-03-20T00:00:03.855Z,3.87
2023-03-20T00:02:33.382Z,3.60
2023-03-20T00:05:02.104Z,3.33
2023-03-20T00:07:30.815Z,4.20
2023-03-20T00:10:01.225Z,4.00
2023-03-20T00:12:29.947Z,3.90
2023-03-20T00:15:06.807Z,3.50
2023-03-20T00:17:35.846Z,3.93
2023-03-20T00:20:05.222Z,3.40
2023-03-20T00:22:33.945Z,3.77
2023-03-20T00:25:02.670Z,3.40
2023-03-20T00:27:31.464Z,3.83
2023-03-20T00:30:02.352Z,3.73
2023-03-20T00:32:30.964Z,3.40
2023-03-20T00:34:59.665Z,3.50
2023-03-20T00:37:29.080Z,3.50
2023-03-20T00:39:59.479Z,3.50
2023-03-20T00:42:29.009Z,3.83
2023-03-20T00:44:59.745Z,3.47
2023-03-20T00:47:30.477Z,3.50
2023-03-20T00:49:59.456Z,3.50
2023-03-20T00:52:28.700Z,3.80
2023-03-20T00:54:57.393Z,3.63
2023-03-20T00:57:31.558Z,3.73
2023-03-20T01:00:06.276Z,3.53
2023-03-20T01:02:36.604Z,3.70
2023-03-20T01:05:06.676Z,3.53
2023-03-20T01:07:35.483Z,3.40
2023-03-20T01:10:05.695Z,3.33
2023-03-20T01:12:34.561Z,3.50
2023-03-20T01:15:21.137Z,3.37
2023-03-20T01:17:52.986Z,3.50
2023-03-20T01:20:25.818Z,3.50
2023-03-20T01:22:55.060Z,3.40
2023-03-20T01:25:24.347Z,3.60
2023-03-20T01:27:55.769Z,3.57
2023-03-20T01:30:27.729Z,3.27
2023-03-20T01:32:59.035Z,3.60
2023-03-20T01:35:29.590Z,3.50
2023-03-20T01:38:02.895Z,3.40
2023-03-20T01:40:43.009Z,3.70
2023-03-20T01:43:19.487Z,3.10
2023-03-20T01:46:04.308Z,3.60
2023-03-20T01:49:02.604Z,3.07
2023-03-20T01:51:35.604Z,3.13
2023-03-20T01:54:16.124Z,3.20
2023-03-20T01:57:06.769Z,3.60
2023-03-20T01:59:42.382Z,3.40
2023-03-20T02:02:17.809Z,3.50
2023-03-20T02:04:53.475Z,3.10
2023-03-20T02:07:25.305Z,3.40
2023-03-20T02:10:09.793Z,3.30
2023-03-20T02:13:05.874Z,3.10
2023-03-20T02:16:01.504Z,3.10
2023-03-20T02:18:56.527Z,2.80
2023-03-20T02:22:14.894Z,3.60
2023-03-20T02:25:22.564Z,2.83
2023-03-20T02:28:33.783Z,3.37
2023-03-20T02:31:54.397Z,3.00
2023-03-20T02:35:26.041Z,3.07
2023-03-20T02:38:32.078Z,2.90
2023-03-20T02:41:14.806Z,2.87
2023-03-20T02:43:52.825Z,3.00
2023-03-20T02:46:34.281Z,3.20
2023-03-20T02:49:24.934Z,3.07
2023-03-20T02:52:05.341Z,3.00
2023-03-20T02:54:45.390Z,3.47
2023-03-20T02:57:24.610Z,3.60
2023-03-20T03:00:04.301Z,2.93
2023-03-20T03:02:39.273Z,3.47
2023-03-20T03:05:20.601Z,3.40
2023-03-20T03:07:53.738Z,2.80
2023-03-20T03:10:29.892Z,2.90
2023-03-20T03:13:03.614Z,3.50
2023-03-20T03:15:39.942Z,2.77
2023-03-20T03:18:15.439Z,2.97
2023-03-20T03:20:48.085Z,3.00
2023-03-20T03:23:27.716Z,3.17
2023-03-20T03:26:01.332Z,2.80
2023-03-20T03:28:38.985Z,3.13
2023-03-20T03:31:11.050Z,2.57
2023-03-20T03:33:44.425Z,2.90
2023-03-20T03:36:25.547Z,3.10
2023-03-20T03:39:01.884Z,2.40
2023-03-20T03:41:38.816Z,3.20
2023-03-20T03:44:16.912Z,2.90
2023-03-20T03:46:53.979Z,2.80
2023-03-20T03:49:28.472Z,3.10
2023-03-20T03:52:02.602Z,3.20
2023-03-20T03:54:41.720Z,2.97
2023-03-20T03:57:39.087Z,3.13
2023-03-20T04:00:17.237Z,3.30
2023-03-20T04:02:51.048Z,2.90
2023-03-20T04:05:22.798Z,2.90
2023-03-20T04:07:57.699Z,2.90
2023-03-20T04:10:26.789Z,2.60
2023-03-20T04:12:56.896Z,3.23
2023-03-20T04:15:27.722Z,2.83
2023-03-20T04:17:56.970Z,2.90
2023-03-20T04:20:25.981Z,3.50
2023-03-20T04:22:54.836Z,2.80
2023-03-20T04:25:29.800Z,3.00
2023-03-20T04:28:01.009Z,3.33
2023-03-20T04:30:54.914Z,3.23
2023-03-20T04:33:47.516Z,3.10
2023-03-20T04:36:22.185Z,2.80
2023-03-20T04:38:56.341Z,2.90
2023-03-20T04:41:26.637Z,2.73
2023-03-20T04:44:00.325Z,3.23
2023-03-20T04:46:29.251Z,3.20
2023-03-20T04:48:59.317Z,3.10
2023-03-20T04:51:44.822Z,3.10
2023-03-20T04:54:17.128Z,3.20
2023-03-20T04:56:47.426Z,3.40
2023-03-20T04:59:20.976Z,3.00
2023-03-20T05:01:49.897Z,3.17
2023-03-20T05:04:18.778Z,2.90
2023-03-20T05:06:49.565Z,3.10
2023-03-20T05:09:23.504Z,2.90
2023-03-20T05:11:56.776Z,3.00
2023-03-20T05:15:08.663Z,3.10
2023-03-20T05:17:57.085Z,3.13
2023-03-20T05:20:44.598Z,4.03
2023-03-20T05:23:43.562Z,4.50
2023-03-20T05:26:32.406Z,4.13
2023-03-20T05:29:26.308Z,4.53
2023-03-20T05:32:08.031Z,4.47
2023-03-20T05:35:12.364Z,3.93
2023-03-20T05:37:59.442Z,3.77
2023-03-20T05:40:48.774Z,4.00
2023-03-20T05:43:32.418Z,3.73
2023-03-20T05:46:33.311Z,3.57
2023-03-20T05:49:50.525Z,3.50
2023-03-20T05:52:30.670Z,3.73
2023-03-20T05:55:10.266Z,4.13
2023-03-20T05:57:51.549Z,3.60
2023-03-20T06:00:44.568Z,3.80
2023-03-20T06:03:39.301Z,13.30
2023-03-20T06:06:16.119Z,4.40
2023-03-20T06:08:49.702Z,4.03
2023-03-20T06:11:21.253Z,4.67
2023-03-20T06:13:51.256Z,4.33
2023-03-20T06:16:23.327Z,4.20
2023-03-20T06:18:53.057Z,7.93
2023-03-20T06:21:23.432Z,5.13
2023-03-20T06:23:52.490Z,5.30
2023-03-20T06:26:24.187Z,5.10
2023-03-20T06:29:00.861Z,5.70
2023-03-20T06:31:30.519Z,5.13
2023-03-20T06:34:00.905Z,5.00
2023-03-20T06:36:32.699Z,4.20
2023-03-20T06:39:08.338Z,4.00
2023-03-20T06:41:37.166Z,4.00
2023-03-20T06:44:11.028Z,3.57
2023-03-20T06:47:15.997Z,3.27
2023-03-20T06:49:46.064Z,3.43
2023-03-20T06:52:19.810Z,3.70
2023-03-20T06:59:51.263Z,12.53
2023-03-20T07:03:08.990Z,4.50
2023-03-20T07:05:44.952Z,3.47
2023-03-20T07:08:39.467Z,3.20
2023-03-20T07:11:09.324Z,3.43
2023-03-20T07:13:39.364Z,3.60
2023-03-20T07:16:19.318Z,3.83
2023-03-20T07:18:48.501Z,3.53
2023-03-20T07:21:22.902Z,3.80
2023-03-20T07:23:53.059Z,3.43
2023-03-20T07:26:21.803Z,3.90
2023-03-20T07:28:50.523Z,4.00
2023-03-20T07:31:29.826Z,3.80
2023-03-20T07:34:15.627Z,4.07
2023-03-20T07:36:44.844Z,3.70
2023-03-20T07:39:19.246Z,4.10
2023-03-20T07:41:58.722Z,3.53
2023-03-20T07:44:39.661Z,3.90
2023-03-20T07:47:12.771Z,3.80
2023-03-20T07:49:41.634Z,3.97
2023-03-20T07:52:10.583Z,4.60
2023-03-20T07:54:40.646Z,4.10
2023-03-20T07:57:09.573Z,5.10
2023-03-20T07:59:38.346Z,4.63
2023-03-20T08:02:07.204Z,4.73
2023-03-20T08:04:36.570Z,4.40
2023-03-20T08:07:05.679Z,4.40
2023-03-20T08:09:34.723Z,4.73
2023-03-20T08:12:05.042Z,5.00
2023-03-20T08:14:33.693Z,4.50
2023-03-20T08:17:14.607Z,4.90
2023-03-20T08:19:44.785Z,4.83
2023-03-20T08:22:13.741Z,4.97
2023-03-20T08:24:42.471Z,4.90
2023-03-20T08:27:12.658Z,4.80
2023-03-20T08:29:41.393Z,5.27
2023-03-20T08:32:10.485Z,4.67
2023-03-20T08:34:39.270Z,4.90
2023-03-20T08:37:08.186Z,4.87
2023-03-20T08:39:37.817Z,5.33
2023-03-20T08:42:06.745Z,4.97
2023-03-20T08:44:36.914Z,5.57
2023-03-20T08:47:07.828Z,5.57
2023-03-20T08:49:37.041Z,5.43
2023-03-20T08:52:05.989Z,5.90
2023-03-20T08:54:35.152Z,7.47
2023-03-20T08:57:04.151Z,7.90
2023-03-20T08:59:33.184Z,6.20
2023-03-20T09:02:03.256Z,6.67
2023-03-20T09:04:31.966Z,7.23
2023-03-20T09:07:01.884Z,7.13
2023-03-20T09:09:30.791Z,7.60
2023-03-20T09:12:00.560Z,8.50
2023-03-20T09:14:30.610Z,8.13
2023-03-20T09:16:59.467Z,8.63
2023-03-20T09:19:30.723Z,9.77
2023-03-20T09:22:01.179Z,8.90
2023-03-20T09:24:31.682Z,7.93
2023-03-20T09:27:03.609Z,7.90
2023-03-20T09:29:32.673Z,8.93
2023-03-20T09:32:01.315Z,8.53
2023-03-20T09:34:31.437Z,8.33
2023-03-20T09:37:03.179Z,8.67
2023-03-20T09:39:32.069Z,9.33
2023-03-20T09:42:15.620Z,10.30
2023-03-20T09:45:00.477Z,10.70
2023-03-20T09:47:40.173Z,11.23
2023-03-20T09:50:34.588Z,12.67
2023-03-20T09:53:12.321Z,13.03
2023-03-20T09:55:43.166Z,11.63
2023-03-20T09:58:19.659Z,11.63
2023-03-20T10:00:49.302Z,11.83
2023-03-20T10:03:23.669Z,11.70
2023-03-20T10:06:01.714Z,12.03
2023-03-20T10:08:36.318Z,14.20
2023-03-20T10:11:24.108Z,14.27
2023-03-20T10:14:16.735Z,15.50
2023-03-20T10:17:02.486Z,15.13
2023-03-20T10:19:33.567Z,14.10
2023-03-20T10:22:17.116Z,13.87
2023-03-20T10:24:56.974Z,13.67
2023-03-20T10:27:30.565Z,13.10
2023-03-20T10:30:23.124Z,12.63
2023-03-20T10:33:05.136Z,12.87
2023-03-20T10:35:46.269Z,13.37
2023-03-20T10:38:34.568Z,13.30
2023-03-20T10:41:05.605Z,12.80
2023-03-20T10:43:39.417Z,12.77
2023-03-20T10:46:15.246Z,13.00
2023-03-20T10:48:50.282Z,12.00
2023-03-20T10:51:23.487Z,12.40
2023-03-20T10:54:01.356Z,12.50
2023-03-20T10:56:37.959Z,13.03
2023-03-20T10:59:14.953Z,12.47
2023-03-20T11:01:43.577Z,12.53
2023-03-20T11:04:12.295Z,12.50
2023-03-20T11:06:48.201Z,12.63
2023-03-20T11:09:23.124Z,13.53
2023-03-20T11:11:58.125Z,14.80
2023-03-20T11:14:35.121Z,15.70
2023-03-20T11:17:06.814Z,16.33
2023-03-20T11:19:38.206Z,16.87
2023-03-20T11:22:23.200Z,17.73
2023-03-20T11:25:01.603Z,17.70
2023-03-20T11:27:33.028Z,16.40
2023-03-20T11:30:05.675Z,15.13
2023-03-20T11:32:37.580Z,15.93
2023-03-20T11:35:19.947Z,15.37
2023-03-20T11:37:52.495Z,15.70
2023-03-20T11:40:32.443Z,15.37
2023-03-20T11:43:11.348Z,14.53
2023-03-20T11:45:44.090Z,12.63
2023-03-20T11:48:21.062Z,15.23
2023-03-20T11:50:57.711Z,15.17
2023-03-20T12:00:19.507Z,15.33
2023-03-20T12:02:49.617Z,14.50
2023-03-20T12:05:33.758Z,14.20
2023-03-20T12:08:11.494Z,14.27
2023-03-20T12:10:47.272Z,14.20
2023-03-20T12:13:25.024Z,13.57
2023-03-20T12:16:02.763Z,13.73
2023-03-20T12:18:39.740Z,14.07
2023-03-20T12:21:14.765Z,13.70
2023-03-20T12:23:50.820Z,13.67
2023-03-20T12:26:29.023Z,13.57
2023-03-20T12:29:06.573Z,12.77
2023-03-20T12:31:43.476Z,12.80
2023-03-20T12:34:20.791Z,21.83
2023-03-20T12:36:53.070Z,15.00
2023-03-20T12:39:26.378Z,17.70
2023-03-20T12:42:15.554Z,15.57
2023-03-20T12:44:52.392Z,16.00
2023-03-20T12:47:58.839Z,15.10
2023-03-20T12:50:48.093Z,15.63
2023-03-20T12:53:40.340Z,15.27
2023-03-20T12:56:30.098Z,15.00
2023-03-20T12:59:08.591Z,14.93
2023-03-20T13:01:49.821Z,14.93
2023-03-20T13:04:48.577Z,13.87
2023-03-20T13:07:23.487Z,13.90
2023-03-20T13:10:13.845Z,13.77
2023-03-20T13:12:58.011Z,13.17
2023-03-20T13:15:57.841Z,13.87
2023-03-20T13:18:48.408Z,13.03
2023-03-20T13:21:28.874Z,13.93
2023-03-20T13:24:17.682Z,15.00
2023-03-20T13:26:57.079Z,14.33
2023-03-20T13:29:35.153Z,14.47
2023-03-20T13:32:20.397Z,14.23
2023-03-20T13:35:20.745Z,14.60
2023-03-20T13:37:53.624Z,14.50
2023-03-20T13:40:28.399Z,13.73
2023-03-20T13:43:05.296Z,14.63
2023-03-20T13:45:39.798Z,15.10
2023-03-20T13:48:29.395Z,14.77
2023-03-20T13:51:11.405Z,17.37
2023-03-20T13:53:56.253Z,14.47
2023-03-20T13:56:41.999Z,16.30
2023-03-20T13:59:51.713Z,19.73
2023-03-20T14:02:46.497Z,22.97
2023-03-20T14:05:21.635Z,20.97
2023-03-20T14:07:56.544Z,19.63
2023-03-20T14:10:39.805Z,20.00
2023-03-20T14:13:18.493Z,18.80
2023-03-20T14:15:58.449Z,18.57
2023-03-20T14:18:28.161Z,16.50
2023-03-20T14:21:00.946Z,14.30
2023-03-20T14:23:40.135Z,12.87
2023-03-20T14:26:26.070Z,13.87
2023-03-20T14:29:06.659Z,11.43
2023-03-20T14:31:38.919Z,9.83
2023-03-20T14:34:19.165Z,8.40
2023-03-20T14:36:58.720Z,9.13
2023-03-20T14:39:45.036Z,9.27
2023-03-20T14:42:31.888Z,9.13
2023-03-20T14:45:48.745Z,9.60
2023-03-20T14:48:33.218Z,8.47
2023-03-20T14:51:29.901Z,7.23
2023-03-20T14:54:20.071Z,6.53
2023-03-20T14:56:50.533Z,5.80
2023-03-20T14:59:22.569Z,5.30
2023-03-20T15:02:00.627Z,4.97
2023-03-20T15:04:37.661Z,4.80
2023-03-20T15:07:16.697Z,6.53
2023-03-20T15:09:48.773Z,6.10
2023-03-20T15:12:22.574Z,5.10
2023-03-20T15:14:57.656Z,5.27
2023-03-20T15:17:36.989Z,5.40
2023-03-20T15:20:17.450Z,4.70
2023-03-20T15:22:52.964Z,4.90
2023-03-20T15:25:29.743Z,5.00
2023-03-20T15:28:06.062Z,5.33
2023-03-20T15:30:39.827Z,5.30
2023-03-20T15:33:18.138Z,6.53
2023-03-20T15:35:47.683Z,6.00
2023-03-20T15:38:19.318Z,5.80
2023-03-20T15:40:51.350Z,5.73
2023-03-20T15:43:24.457Z,6.13
2023-03-20T15:46:16.923Z,5.87
2023-03-20T15:48:51.335Z,5.20
2023-03-20T15:51:24.624Z,5.63
2023-03-20T15:53:53.393Z,6.23
2023-03-20T15:56:28.429Z,6.23
2023-03-20T15:58:59.095Z,6.97
2023-03-20T16:01:33.381Z,6.87
2023-03-20T16:04:05.926Z,7.33
2023-03-20T16:06:34.711Z,6.83
2023-03-20T16:09:08.759Z,7.27
2023-03-20T16:11:40.567Z,7.43
2023-03-20T16:14:24.194Z,7.00
2023-03-20T16:16:57.440Z,7.20
2023-03-20T16:19:30.204Z,7.37
2023-03-20T16:22:04.133Z,7.70
2023-03-20T16:24:39.988Z,7.57
2023-03-20T16:27:10.981Z,7.53
2023-03-20T16:29:45.376Z,7.70
2023-03-20T16:32:27.976Z,7.40
2023-03-20T16:35:01.538Z,6.93
2023-03-20T16:37:33.599Z,6.67
2023-03-20T16:40:19.726Z,6.50
2023-03-20T16:42:50.144Z,6.07
2023-03-20T16:45:27.125Z,6.27
2023-03-20T16:48:28.400Z,6.00
2023-03-20T16:51:04.205Z,6.07
2023-03-20T16:53:42.408Z,5.60
2023-03-20T16:56:17.565Z,6.27
2023-03-20T16:58:47.384Z,6.40
2023-03-20T17:01:23.402Z,6.77
2023-03-20T17:03:56.615Z,6.90
2023-03-20T17:06:49.765Z,6.63
2023-03-20T17:09:27.189Z,6.80
2023-03-20T17:12:06.810Z,6.73
2023-03-20T17:14:35.492Z,6.50
2023-03-20T17:18:14.291Z,6.30
2023-03-20T17:20:43.544Z,5.80
2023-03-20T17:23:20.714Z,5.47
2023-03-20T17:25:51.833Z,6.00
2023-03-20T17:28:24.369Z,5.70
2023-03-20T17:30:53.850Z,5.23
2023-03-20T17:33:22.878Z,6.17
2023-03-20T17:35:53.757Z,5.13
2023-03-20T17:38:26.391Z,5.10
2023-03-20T17:40:56.484Z,5.47
2023-03-20T17:43:25.817Z,4.77
2023-03-20T17:45:54.561Z,4.37
2023-03-20T17:48:23.519Z,4.87
2023-03-20T17:50:52.341Z,4.20
2023-03-20T17:53:25.712Z,4.70
2023-03-20T17:55:54.885Z,4.53
2023-03-20T17:58:25.152Z,5.07
2023-03-20T18:00:56.220Z,4.63
2023-03-20T18:03:25.062Z,5.10
2023-03-20T18:05:53.856Z,4.90
2023-03-20T18:08:25.414Z,4.57
2023-03-20T18:10:55.558Z,5.30
2023-03-20T18:13:27.294Z,5.70
2023-03-20T18:16:00.701Z,5.53
2023-03-20T18:18:30.306Z,6.27
2023-03-20T18:21:00.714Z,6.07
2023-03-20T18:23:34.413Z,5.60
2023-03-20T18:26:04.026Z,6.77
2023-03-20T18:28:33.015Z,6.57
2023-03-20T18:31:01.739Z,6.73
2023-03-20T18:33:30.603Z,6.40
2023-03-20T18:35:59.422Z,7.10
2023-03-20T18:38:33.088Z,6.40
2023-03-20T18:41:02.325Z,6.90
2023-03-20T18:43:31.161Z,6.43
2023-03-20T18:45:59.956Z,6.80
2023-03-20T18:48:30.625Z,9.10
2023-03-20T18:51:02.669Z,7.73
2023-03-20T18:53:33.044Z,7.83
2023-03-20T18:56:01.781Z,7.23
2023-03-20T18:58:32.431Z,7.70
2023-03-20T19:01:01.225Z,6.73
2023-03-20T19:03:30.157Z,8.57
2023-03-20T19:06:00.465Z,8.73
2023-03-20T19:08:35.258Z,8.70
2023-03-20T19:11:04.165Z,11.00
2023-03-20T19:13:33.320Z,11.10
2023-03-20T19:16:02.453Z,11.43
2023-03-20T19:18:32.487Z,14.27
2023-03-20T19:21:01.282Z,14.80
2023-03-20T19:23:30.067Z,16.60
2023-03-20T19:26:00.138Z,14.80
2023-03-20T19:28:40.535Z,12.17
2023-03-20T19:31:10.969Z,13.17
2023-03-20T19:33:40.904Z,12.37
2023-03-20T19:36:33.730Z,11.17
2023-03-20T19:39:09.622Z,15.40
2023-03-20T19:41:39.771Z,15.63
2023-03-20T19:44:08.509Z,15.27
2023-03-20T19:46:40.792Z,14.30
2023-03-20T19:49:19.772Z,14.40
2023-03-20T19:51:49.978Z,11.57
2023-03-20T19:54:19.015Z,10.30
2023-03-20T19:56:49.105Z,9.47
2023-03-20T19:59:45.618Z,11.00
2023-03-20T20:02:14.469Z,9.07
2023-03-20T20:04:44.203Z,8.90
2023-03-20T20:08:00.703Z,9.33
2023-03-20T20:10:05.548Z,9.53
2023-03-20T20:12:39.444Z,8.77
2023-03-20T20:15:11.292Z,8.53
2023-03-20T20:17:42.524Z,8.70
2023-03-20T20:20:14.745Z,9.90
2023-03-20T20:22:44.390Z,9.17
2023-03-20T20:25:14.935Z,9.30
2023-03-20T20:27:46.700Z,9.20
2023-03-20T20:30:19.989Z,9.37
2023-03-20T20:32:50.119Z,9.60
2023-03-20T20:35:43.952Z,9.60
2023-03-20T20:38:40.318Z,9.90
2023-03-20T20:40:57.818Z,10.13
2023-03-20T20:44:01.144Z,11.03
2023-03-20T20:46:17.033Z,12.57
2023-03-20T20:48:46.670Z,17.03
2023-03-20T20:51:19.372Z,15.90
2023-03-20T20:53:48.996Z,18.40
2023-03-20T20:56:21.226Z,17.03
2023-03-20T20:58:52.071Z,22.10
2023-03-20T21:01:20.934Z,20.07
2023-03-20T21:03:49.630Z,22.47
2023-03-20T21:06:18.372Z,20.67
2023-03-20T21:08:47.192Z,19.43
2023-03-20T21:11:16.697Z,19.37
2023-03-20T21:13:45.593Z,19.60
2023-03-20T21:16:17.827Z,18.53
2023-03-20T21:18:46.536Z,18.63
2023-03-20T21:21:16.167Z,16.50
2023-03-20T21:23:46.112Z,18.07
2023-03-20T21:26:14.948Z,18.13
2023-03-20T21:28:43.664Z,17.40
2023-03-20T21:31:24.410Z,19.00
2023-03-20T21:33:55.563Z,19.67
2023-03-20T21:36:24.984Z,17.57
2023-03-20T21:39:06.884Z,17.90
2023-03-20T21:41:37.781Z,16.40
2023-03-20T21:44:07.413Z,16.37
2023-03-20T22:10:07.980Z,13.13
2023-03-20T22:21:21.812Z,13.07
2023-03-20T22:24:05.729Z,13.57
2023-03-20T22:35:25.448Z,12.20
2023-03-20T22:38:08.974Z,12.37
2023-03-20T22:41:09.569Z,11.77
2023-03-20T22:46:10.146Z,12.10
2023-03-20T22:48:45.304Z,12.47
2023-03-20T22:51:14.050Z,11.80
2023-03-20T22:53:42.744Z,11.33
2023-03-20T22:56:14.242Z,11.13
2023-03-20T22:58:42.944Z,11.80
2023-03-20T23:01:12.591Z,10.80
2023-03-20T23:03:42.380Z,10.90
2023-03-20T23:06:20.429Z,11.30
2023-03-20T23:08:55.124Z,10.67
2023-03-20T23:11:28.774Z,11.03
2023-03-20T23:13:58.033Z,11.27
2023-03-20T23:16:26.915Z,10.37
2023-03-20T23:18:55.646Z,10.07
2023-03-20T23:21:25.584Z,12.10
2023-03-20T23:23:54.271Z,10.50
2023-03-20T23:26:23.222Z,10.60
2023-03-20T23:28:53.890Z,11.10
2023-03-20T23:31:25.931Z,10.80
2023-03-20T23:33:58.190Z,10.00
2023-03-20T23:36:36.506Z,9.40
2023-03-20T23:39:07.394Z,9.93
2023-03-20T23:42:05.043Z,9.50
2023-03-20T23:44:26.917Z,10.07
2023-03-20T23:46:55.857Z,9.70
2023-03-20T23:49:24.544Z,11.13
2023-03-20T23:51:53.310Z,10.37
2023-03-20T23:54:21.999Z,10.60
2023-03-20T23:56:50.620Z,10.67
2023-03-20T23:59:22.312Z,9.23
